createdAt,value
2023-04-08T00:00:57.599Z,2.33
2023-04-08T00:03:42.806Z,2.33
2023-04-08T00:06:28.165Z,2.20
2023-04-08T00:09:13.298Z,2.10
2023-04-08T00:11:58.177Z,2.67
2023-04-08T00:14:43.596Z,2.33
2023-04-08T00:17:28.958Z,2.47
2023-04-08T00:20:14.035Z,2.60
2023-04-08T00:22:59.054Z,2.30
2023-04-08T00:25:43.960Z,2.47
2023-04-08T00:28:29.344Z,2.30
2023-04-08T00:31:14.286Z,2.67
2023-04-08T00:33:59.503Z,2.17
2023-04-08T00:36:45.914Z,2.13
2023-04-08T00:39:31.286Z,2.10
2023-04-08T00:42:17.124Z,2.47
2023-04-08T00:45:02.547Z,2.10
2023-04-08T00:47:52.598Z,2.30
2023-04-08T00:50:38.138Z,2.27
2023-04-08T00:53:24.826Z,2.20
2023-04-08T00:56:11.317Z,2.30
2023-04-08T00:58:56.424Z,2.20
2023-04-08T01:01:51.116Z,2.50
2023-04-08T01:05:04.948Z,2.33
2023-04-08T01:07:50.889Z,2.23
2023-04-08T01:10:38.069Z,2.60
2023-04-08T01:13:27.899Z,2.43
2023-04-08T01:16:15.745Z,2.20
2023-04-08T01:19:01.719Z,2.20
2023-04-08T01:21:47.427Z,2.27
2023-04-08T01:24:38.966Z,2.13
2023-04-08T01:27:24.292Z,2.50
2023-04-08T01:30:11.453Z,2.30
2023-04-08T01:32:57.810Z,2.23
2023-04-08T01:35:43.798Z,2.37
2023-04-08T01:38:31.827Z,2.20
2023-04-08T01:41:18.271Z,2.30
2023-04-08T01:44:04.715Z,2.40
2023-04-08T01:46:50.662Z,2.00
2023-04-08T01:49:37.029Z,2.10
2023-04-08T01:52:23.779Z,2.30
2023-04-08T01:55:09.358Z,2.10
2023-04-08T01:57:58.779Z,2.07
2023-04-08T02:00:45.150Z,1.87
2023-04-08T02:03:34.964Z,1.90
2023-04-08T02:06:20.346Z,2.50
2023-04-08T02:09:05.750Z,2.20
2023-04-08T02:11:51.368Z,2.50
2023-04-08T02:14:36.686Z,2.37
2023-04-08T02:17:30.907Z,2.07
2023-04-08T02:20:19.161Z,2.07
2023-04-08T02:23:24.250Z,2.00
2023-04-08T02:26:17.779Z,1.90
2023-04-08T02:29:05.300Z,2.23
2023-04-08T02:31:51.705Z,2.17
2023-04-08T02:34:39.295Z,2.17
2023-04-08T02:37:24.668Z,2.30
2023-04-08T02:40:29.928Z,2.10
2023-04-08T02:43:15.261Z,2.20
2023-04-08T02:46:03.727Z,1.90
2023-04-08T02:48:49.426Z,2.13
2023-04-08T02:51:34.795Z,2.10
2023-04-08T02:54:20.382Z,2.00
2023-04-08T02:57:06.490Z,2.37
2023-04-08T02:59:51.390Z,1.83
2023-04-08T03:02:36.626Z,2.00
2023-04-08T03:05:21.778Z,1.90
2023-04-08T03:08:07.080Z,1.80
2023-04-08T03:10:52.244Z,2.27
2023-04-08T03:13:37.425Z,2.00
2023-04-08T03:16:22.482Z,2.00
2023-04-08T03:19:07.673Z,1.80
2023-04-08T03:21:52.639Z,1.83
2023-04-08T03:24:37.718Z,2.10
2023-04-08T03:27:22.965Z,2.00
2023-04-08T03:30:08.543Z,1.77
2023-04-08T03:32:53.913Z,1.90
2023-04-08T03:35:39.675Z,1.77
2023-04-08T03:38:24.890Z,1.83
2023-04-08T03:41:09.918Z,1.80
2023-04-08T03:43:55.172Z,2.10
2023-04-08T03:46:40.489Z,1.80
2023-04-08T03:49:25.867Z,1.90
2023-04-08T03:52:11.117Z,1.87
2023-04-08T03:54:56.560Z,1.60
2023-04-08T03:57:41.726Z,1.70
2023-04-08T04:00:27.004Z,1.70
2023-04-08T04:03:13.281Z,1.50
2023-04-08T04:05:58.774Z,1.70
2023-04-08T04:08:44.264Z,1.50
2023-04-08T04:11:29.270Z,1.60
2023-04-08T04:14:14.477Z,1.33
2023-04-08T04:16:59.638Z,1.70
2023-04-08T04:19:44.677Z,1.80
2023-04-08T04:22:29.471Z,1.60
2023-04-08T04:25:14.498Z,1.67
2023-04-08T04:27:59.991Z,1.50
2023-04-08T04:30:45.735Z,1.60
2023-04-08T04:33:31.519Z,1.57
2023-04-08T04:36:16.739Z,1.50
2023-04-08T04:39:01.733Z,1.30
2023-04-08T04:41:48.962Z,1.63
2023-04-08T04:44:34.372Z,1.50
2023-04-08T04:47:19.943Z,1.70
2023-04-08T04:50:05.962Z,1.50
2023-04-08T04:52:51.042Z,1.60
2023-04-08T04:55:38.726Z,1.53
2023-04-08T04:58:24.607Z,1.50
2023-04-08T05:01:10.209Z,1.33
2023-04-08T05:03:55.416Z,1.30
2023-04-08T05:06:40.996Z,1.30
2023-04-08T05:09:26.360Z,1.40
2023-04-08T05:12:12.491Z,1.50
2023-04-08T05:15:00.680Z,1.30
2023-04-08T05:17:46.014Z,1.37
2023-04-08T05:20:31.442Z,1.73
2023-04-08T05:23:16.691Z,1.30
2023-04-08T05:26:02.020Z,1.33
2023-04-08T05:28:47.902Z,1.43
2023-04-08T05:31:33.457Z,1.40
2023-04-08T05:34:22.841Z,1.37
2023-04-08T05:37:08.602Z,1.67
2023-04-08T05:39:53.601Z,1.20
2023-04-08T05:42:38.889Z,1.60
2023-04-08T05:45:24.052Z,1.40
2023-04-08T05:48:09.447Z,1.13
2023-04-08T05:50:54.811Z,1.23
2023-04-08T05:53:40.497Z,1.47
2023-04-08T05:56:25.967Z,1.23
2023-04-08T05:59:11.231Z,1.30
2023-04-08T06:01:57.005Z,1.00
2023-04-08T06:04:42.169Z,1.10
2023-04-08T06:07:27.816Z,1.30
2023-04-08T06:10:12.966Z,1.43
2023-04-08T06:12:58.206Z,1.20
2023-04-08T06:15:43.817Z,1.07
2023-04-08T06:18:29.430Z,1.27
2023-04-08T06:21:14.763Z,1.13
2023-04-08T06:23:59.991Z,1.30
2023-04-08T06:26:45.030Z,1.23
2023-04-08T06:29:31.260Z,1.20
2023-04-08T06:32:16.635Z,1.27
2023-04-08T06:35:02.098Z,1.00
2023-04-08T06:37:47.291Z,1.10
2023-04-08T06:40:33.103Z,1.10
2023-04-08T06:43:18.301Z,0.93
2023-04-08T06:46:04.085Z,1.27
2023-04-08T06:48:49.479Z,1.23
2023-04-08T06:51:35.517Z,1.20
2023-04-08T06:54:21.317Z,1.00
2023-04-08T06:57:07.049Z,1.27
2023-04-08T06:59:53.441Z,0.70
2023-04-08T07:02:38.664Z,1.00
2023-04-08T07:05:24.295Z,0.80
2023-04-08T07:08:09.793Z,1.10
2023-04-08T07:10:55.175Z,1.07
2023-04-08T07:13:40.507Z,1.10
2023-04-08T07:16:26.022Z,1.00
2023-04-08T07:19:11.792Z,1.00
2023-04-08T07:21:57.984Z,0.70
2023-04-08T07:24:45.751Z,1.10
2023-04-08T07:27:31.978Z,0.93
2023-04-08T07:30:17.297Z,0.90
2023-04-08T07:33:02.791Z,1.10
2023-04-08T07:35:48.428Z,0.93
2023-04-08T07:38:33.703Z,0.90
2023-04-08T07:41:19.199Z,1.13
2023-04-08T07:44:04.461Z,1.00
2023-04-08T07:46:51.649Z,1.10
2023-04-08T07:49:37.473Z,1.03
2023-04-08T07:52:22.936Z,1.00
2023-04-08T07:55:08.865Z,0.70
2023-04-08T07:57:54.234Z,0.83
2023-04-08T08:00:40.831Z,0.93
2023-04-08T08:03:27.278Z,0.80
2023-04-08T08:06:15.560Z,1.03
2023-04-08T08:09:01.183Z,0.60
2023-04-08T08:11:46.314Z,0.80
2023-04-08T08:14:31.505Z,0.87
2023-04-08T08:17:18.538Z,0.83
2023-04-08T08:20:04.875Z,0.70
2023-04-08T08:22:57.340Z,0.83
2023-04-08T08:25:42.987Z,0.90
2023-04-08T08:28:28.666Z,1.00
2023-04-08T08:31:14.549Z,0.70
2023-04-08T08:33:59.685Z,0.73
2023-04-08T08:36:44.630Z,0.83
2023-04-08T08:39:29.701Z,0.60
2023-04-08T08:42:23.399Z,0.83
2023-04-08T08:45:09.231Z,0.80
2023-04-08T08:47:54.943Z,0.80
2023-04-08T08:50:40.423Z,0.63
2023-04-08T08:53:32.730Z,0.80
2023-04-08T08:56:19.215Z,0.70
2023-04-08T08:59:04.200Z,0.70
2023-04-08T09:01:49.713Z,1.00
2023-04-08T09:04:37.644Z,0.80
2023-04-08T09:07:28.303Z,0.80
2023-04-08T09:10:13.973Z,0.77
2023-04-08T09:13:01.754Z,0.90
2023-04-08T09:16:09.413Z,0.90
2023-04-08T09:18:54.863Z,0.70
2023-04-08T09:21:41.430Z,0.90
2023-04-08T09:24:37.460Z,0.80
2023-04-08T09:27:36.444Z,0.83
2023-04-08T09:30:23.704Z,0.67
2023-04-08T09:33:08.798Z,0.80
2023-04-08T09:35:54.267Z,0.90
2023-04-08T09:38:39.902Z,0.80
2023-04-08T09:41:28.480Z,0.90
2023-04-08T09:44:14.992Z,0.90
2023-04-08T09:47:18.105Z,0.53
2023-04-08T09:50:06.735Z,0.87
2023-04-08T09:52:57.538Z,0.70
2023-04-08T09:55:44.462Z,1.27
2023-04-08T09:58:38.948Z,1.10
2023-04-08T10:01:33.121Z,0.90
2023-04-08T10:04:21.321Z,1.10
2023-04-08T10:07:08.701Z,1.60
2023-04-08T10:09:54.166Z,1.57
2023-04-08T10:12:39.948Z,2.07
2023-04-08T10:15:30.529Z,1.77
2023-04-08T10:18:18.675Z,1.77
2023-04-08T10:21:05.281Z,2.10
2023-04-08T10:23:59.831Z,1.90
2023-04-08T10:26:45.916Z,2.20
2023-04-08T10:29:31.531Z,2.17
2023-04-08T10:32:30.073Z,2.20
2023-04-08T10:35:15.236Z,2.07
2023-04-08T10:38:01.053Z,2.17
2023-04-08T10:40:49.484Z,2.50
2023-04-08T10:43:35.586Z,2.00
2023-04-08T10:46:22.292Z,1.70
2023-04-08T10:49:08.856Z,2.40
2023-04-08T10:51:54.728Z,2.60
2023-04-08T10:54:48.252Z,2.40
2023-04-08T10:57:34.313Z,2.27
2023-04-08T11:00:31.995Z,2.13
2023-04-08T11:03:17.634Z,2.30
2023-04-08T11:06:03.455Z,2.73
2023-04-08T11:08:48.889Z,2.60
2023-04-08T11:11:34.590Z,2.63
2023-04-08T11:14:21.933Z,2.80
2023-04-08T11:17:08.618Z,3.33
2023-04-08T11:19:54.981Z,3.40
2023-04-08T11:22:40.615Z,3.43
2023-04-08T11:25:26.388Z,4.20
2023-04-08T11:28:12.997Z,3.77
2023-04-08T11:30:59.501Z,4.50
2023-04-08T11:33:49.993Z,3.80
2023-04-08T11:36:36.779Z,4.53
2023-04-08T11:39:24.964Z,4.67
2023-04-08T11:42:25.956Z,5.17
2023-04-08T11:45:13.414Z,4.70
2023-04-08T11:47:58.621Z,5.60
2023-04-08T11:50:45.451Z,5.53
2023-04-08T11:53:31.170Z,5.03
2023-04-08T11:56:21.799Z,4.53
2023-04-08T11:59:07.765Z,4.10
2023-04-08T12:01:53.302Z,4.60
2023-04-08T12:04:39.357Z,3.97
2023-04-08T12:07:24.840Z,3.80
2023-04-08T12:10:11.064Z,3.60
2023-04-08T12:12:56.293Z,3.60
2023-04-08T12:15:42.136Z,3.33
2023-04-08T12:18:27.372Z,3.50
2023-04-08T12:21:12.862Z,3.10
2023-04-08T12:23:58.346Z,3.93
2023-04-08T12:26:43.513Z,3.07
2023-04-08T12:29:29.317Z,3.17
2023-04-08T12:32:14.953Z,3.30
2023-04-08T12:35:00.425Z,3.30
2023-04-08T12:37:45.712Z,3.20
2023-04-08T12:40:31.300Z,3.63
2023-04-08T12:43:16.588Z,2.73
2023-04-08T12:46:03.165Z,2.90
2023-04-08T12:48:48.643Z,2.83
2023-04-08T12:51:34.485Z,2.50
2023-04-08T12:54:21.747Z,2.90
2023-04-08T12:57:07.080Z,2.97
2023-04-08T12:59:51.929Z,2.83
2023-04-08T13:02:37.102Z,2.67
2023-04-08T13:05:32.824Z,2.70
2023-04-08T13:08:27.998Z,2.73
2023-04-08T13:11:13.382Z,2.80
2023-04-08T13:13:58.630Z,2.47
2023-04-08T13:16:43.797Z,2.60
2023-04-08T13:19:29.039Z,2.90
2023-04-08T13:22:16.787Z,2.77
2023-04-08T13:25:02.711Z,2.93
2023-04-08T13:27:48.543Z,2.77
2023-04-08T13:30:36.358Z,2.67
2023-04-08T13:33:22.439Z,3.10
2023-04-08T13:36:08.425Z,2.57
2023-04-08T13:38:54.573Z,2.40
2023-04-08T13:41:40.045Z,2.43
2023-04-08T13:44:25.706Z,2.37
2023-04-08T13:47:11.559Z,2.57
2023-04-08T13:49:57.107Z,2.60
2023-04-08T13:52:42.049Z,2.63
2023-04-08T13:55:27.379Z,2.57
2023-04-08T13:58:22.852Z,2.57
2023-04-08T14:01:09.358Z,2.40
2023-04-08T14:03:54.858Z,2.33
2023-04-08T14:06:39.996Z,2.60
2023-04-08T14:09:24.951Z,2.40
2023-04-08T14:12:10.579Z,2.40
2023-04-08T14:14:55.672Z,2.30
2023-04-08T14:17:41.987Z,2.30
2023-04-08T14:20:27.606Z,2.53
2023-04-08T14:23:13.521Z,2.50
2023-04-08T14:26:01.367Z,2.47
2023-04-08T14:28:47.583Z,2.30
2023-04-08T14:31:33.377Z,2.20
2023-04-08T14:34:18.659Z,2.60
2023-04-08T14:37:04.666Z,2.50
2023-04-08T14:39:50.557Z,2.50
2023-04-08T14:42:35.610Z,2.10
2023-04-08T14:45:20.671Z,2.17
2023-04-08T14:48:06.464Z,2.30
2023-04-08T14:50:52.565Z,2.47
2023-04-08T14:53:37.565Z,2.20
2023-04-08T14:56:22.610Z,2.50
2023-04-08T14:59:07.730Z,2.03
2023-04-08T15:01:52.871Z,2.27
2023-04-08T15:04:37.964Z,2.60
2023-04-08T15:07:23.729Z,2.30
2023-04-08T15:10:09.993Z,2.33
2023-04-08T15:12:55.192Z,2.90
2023-04-08T15:15:40.913Z,2.60
2023-04-08T15:18:26.094Z,2.17
2023-04-08T15:21:11.256Z,2.20
2023-04-08T15:23:56.192Z,2.10
2023-04-08T15:26:41.157Z,2.40
2023-04-08T15:29:26.740Z,2.40
2023-04-08T15:32:11.862Z,2.23
2023-04-08T15:34:56.888Z,2.30
2023-04-08T15:37:41.774Z,2.50
2023-04-08T15:40:26.665Z,2.33
2023-04-08T15:43:12.504Z,2.50
2023-04-08T15:45:57.722Z,2.33
2023-04-08T15:48:43.035Z,2.13
2023-04-08T15:51:28.640Z,2.37
2023-04-08T15:54:13.874Z,2.03
2023-04-08T15:56:59.194Z,2.07
2023-04-08T15:59:44.138Z,2.50
2023-04-08T16:02:29.943Z,2.50
2023-04-08T16:05:15.763Z,2.40
2023-04-08T16:08:01.425Z,2.40
2023-04-08T16:10:47.153Z,2.23
2023-04-08T16:13:32.689Z,2.43
2023-04-08T16:16:18.115Z,2.40
2023-04-08T16:19:03.311Z,2.30
2023-04-08T16:21:48.649Z,2.03
2023-04-08T16:24:36.665Z,2.37
2023-04-08T16:27:22.146Z,2.50
2023-04-08T16:30:08.224Z,2.40
2023-04-08T16:32:53.847Z,2.47
2023-04-08T16:35:39.877Z,2.10
2023-04-08T16:38:26.138Z,2.27
2023-04-08T16:41:11.157Z,2.43
2023-04-08T16:43:56.233Z,2.33
2023-04-08T16:46:41.438Z,2.30
2023-04-08T16:49:26.722Z,2.70
2023-04-08T16:52:11.719Z,2.50
2023-04-08T16:54:57.609Z,2.50
2023-04-08T16:57:43.087Z,2.37
2023-04-08T17:00:28.952Z,2.40
2023-04-08T17:03:14.534Z,2.37
2023-04-08T17:06:10.472Z,3.00
2023-04-08T17:08:56.021Z,2.30
2023-04-08T17:11:41.129Z,2.40
2023-04-08T17:14:27.416Z,2.40
2023-04-08T17:17:13.559Z,2.93
2023-04-08T17:19:58.405Z,2.10
2023-04-08T17:22:45.334Z,2.47
2023-04-08T17:25:30.662Z,2.40
2023-04-08T17:28:16.175Z,2.67
2023-04-08T17:31:01.899Z,2.50
2023-04-08T17:33:46.941Z,2.43
2023-04-08T17:36:32.345Z,2.50
2023-04-08T17:39:17.175Z,2.33
2023-04-08T17:42:02.417Z,2.33
2023-04-08T17:44:48.220Z,2.60
2023-04-08T17:47:33.255Z,2.70
2023-04-08T17:50:18.429Z,2.70
2023-04-08T17:53:04.135Z,2.40
2023-04-08T17:55:49.721Z,2.80
2023-04-08T17:58:35.312Z,2.53
2023-04-08T18:01:22.565Z,2.40
2023-04-08T18:04:08.748Z,2.70
2023-04-08T18:06:53.674Z,3.10
2023-04-08T18:09:40.800Z,2.33
2023-04-08T18:12:28.182Z,2.77
2023-04-08T18:15:13.339Z,2.67
2023-04-08T18:17:58.632Z,2.53
2023-04-08T18:20:44.022Z,2.60
2023-04-08T18:23:28.804Z,2.63
2023-04-08T18:26:15.979Z,2.53
2023-04-08T18:29:04.208Z,2.50
2023-04-08T18:31:49.362Z,2.60
2023-04-08T18:34:34.345Z,2.83
2023-04-08T18:37:21.571Z,2.80
2023-04-08T18:40:07.877Z,2.77
2023-04-08T18:42:53.252Z,2.97
2023-04-08T18:45:38.451Z,2.20
2023-04-08T18:48:23.498Z,2.83
2023-04-08T18:51:10.668Z,2.87
2023-04-08T18:53:56.944Z,2.80
2023-04-08T18:56:42.210Z,2.80
2023-04-08T18:59:28.515Z,2.70
2023-04-08T19:02:14.401Z,3.03
2023-04-08T19:04:59.864Z,2.90
2023-04-08T19:07:45.228Z,2.93
2023-04-08T19:10:33.978Z,3.10
2023-04-08T19:13:19.743Z,2.80
2023-04-08T19:16:05.431Z,3.13
2023-04-08T19:18:51.389Z,2.77
2023-04-08T19:21:37.750Z,2.60
2023-04-08T19:24:23.080Z,2.70
2023-04-08T19:27:07.969Z,2.67
2023-04-08T19:29:53.309Z,2.80
2023-04-08T19:32:38.437Z,2.97
2023-04-08T19:35:23.835Z,2.90
2023-04-08T19:38:09.002Z,2.63
2023-04-08T19:40:54.198Z,2.70
2023-04-08T19:43:39.170Z,3.17
2023-04-08T19:46:24.090Z,2.83
2023-04-08T19:49:09.325Z,2.87
2023-04-08T19:51:55.726Z,3.33
2023-04-08T19:54:43.200Z,2.93
2023-04-08T19:57:28.589Z,3.17
2023-04-08T20:00:14.394Z,3.47
2023-04-08T20:02:59.824Z,3.23
2023-04-08T20:05:48.036Z,2.90
2023-04-08T20:08:34.609Z,2.80
2023-04-08T20:11:20.022Z,2.90
2023-04-08T20:14:05.244Z,3.03
2023-04-08T20:16:50.766Z,3.00
2023-04-08T20:19:36.286Z,3.53
2023-04-08T20:22:21.754Z,3.00
2023-04-08T20:25:07.070Z,3.40
2023-04-08T20:27:53.098Z,3.53
2023-04-08T20:30:38.612Z,3.53
2023-04-08T20:33:24.005Z,3.27
2023-04-08T20:36:10.486Z,3.70
2023-04-08T20:38:55.950Z,3.10
2023-04-08T20:41:41.175Z,3.57
2023-04-08T20:44:26.965Z,3.40
2023-04-08T20:47:12.845Z,3.40
2023-04-08T20:49:58.425Z,3.90
2023-04-08T20:52:43.358Z,3.30
2023-04-08T20:55:28.592Z,3.60
2023-04-08T20:58:13.871Z,3.87
2023-04-08T21:00:59.368Z,3.60
2023-04-08T21:03:44.792Z,3.80
2023-04-08T21:06:31.496Z,3.70
2023-04-08T21:09:16.892Z,3.70
2023-04-08T21:12:02.929Z,4.03
2023-04-08T21:14:47.960Z,3.57
2023-04-08T21:17:33.346Z,3.80
2023-04-08T21:20:18.955Z,3.40
2023-04-08T21:23:06.474Z,3.30
2023-04-08T21:25:51.825Z,3.37
2023-04-08T21:28:37.281Z,3.60
2023-04-08T21:31:22.489Z,3.67
2023-04-08T21:34:07.981Z,4.27
2023-04-08T21:36:53.037Z,4.30
2023-04-08T21:39:38.535Z,3.77
2023-04-08T21:42:25.070Z,4.03
2023-04-08T21:45:11.071Z,4.00
2023-04-08T21:47:56.309Z,4.00
2023-04-08T21:50:41.697Z,4.03
2023-04-08T21:53:27.095Z,3.57
2023-04-08T21:56:14.063Z,3.80
2023-04-08T21:59:01.941Z,3.80
2023-04-08T22:01:47.621Z,4.17
2023-04-08T22:04:33.381Z,4.03
2023-04-08T22:07:18.552Z,3.83
2023-04-08T22:10:04.189Z,4.13
2023-04-08T22:12:49.708Z,4.00
2023-04-08T22:15:34.844Z,4.10
2023-04-08T22:18:19.889Z,4.00
2023-04-08T22:21:05.930Z,4.03
2023-04-08T22:23:51.436Z,4.10
2023-04-08T22:26:36.740Z,4.03
2023-04-08T22:29:22.216Z,4.13
2023-04-08T22:32:07.114Z,4.70
2023-04-08T22:34:52.031Z,4.10
2023-04-08T22:37:37.232Z,4.33
2023-04-08T22:40:22.731Z,4.50
2023-04-08T22:43:07.895Z,4.40
2023-04-08T22:45:55.793Z,4.53
2023-04-08T22:48:41.538Z,4.37
2023-04-08T22:51:26.830Z,4.47
2023-04-08T22:54:12.043Z,4.27
2023-04-08T22:56:57.798Z,4.20
2023-04-08T22:59:43.164Z,4.40
2023-04-08T23:02:28.907Z,4.00
2023-04-08T23:05:14.098Z,4.57
2023-04-08T23:07:59.395Z,3.90
2023-04-08T23:10:44.770Z,4.43
2023-04-08T23:13:29.853Z,4.33
2023-04-08T23:16:14.912Z,4.47
2023-04-08T23:19:00.262Z,4.10
2023-04-08T23:21:45.728Z,4.17
2023-04-08T23:24:33.551Z,4.20
2023-04-08T23:27:18.894Z,4.43
2023-04-08T23:30:07.265Z,3.73
2023-04-08T23:32:52.295Z,4.43
2023-04-08T23:35:39.504Z,4.20
2023-04-08T23:38:24.795Z,4.80
2023-04-08T23:41:10.249Z,4.07
2023-04-08T23:43:55.323Z,4.43
2023-04-08T23:46:40.735Z,4.03
2023-04-08T23:49:26.030Z,4.53
2023-04-08T23:52:11.359Z,4.40
2023-04-08T23:54:56.540Z,4.57
2023-04-08T23:57:43.653Z,4.53
